sensor_id;sensor_type;location;lat;lon;timestamp;P1;durP1;ratioP1;P2;durP2;ratioP2
11010;SDS011;5558;42.702;23.178;2022-07-24T00:01:09;6.40;;;4.53;;
11010;SDS011;5558;42.702;23.178;2022-07-24T00:03:37;5.43;;;3.90;;
11010;SDS011;5558;42.702;23.178;2022-07-24T00:06:04;7.23;;;4.30;;
11010;SDS011;5558;42.702;23.178;2022-07-24T00:08:31;6.93;;;4.57;;
11010;SDS011;5558;42.702;23.178;2022-07-24T00:10:58;8.63;;;4.97;;
11010;SDS011;5558;42.702;23.178;2022-07-24T00:13:25;5.73;;;4.20;;
11010;SDS011;5558;42.702;23.178;2022-07-24T00:15:51;6.77;;;4.53;;
11010;SDS011;5558;42.702;23.178;2022-07-24T00:18:18;7.10;;;4.47;;
11010;SDS011;5558;42.702;23.178;2022-07-24T00:20:46;6.83;;;4.40;;
11010;SDS011;5558;42.702;23.178;2022-07-24T00:23:13;6.93;;;4.17;;
11010;SDS011;5558;42.702;23.178;2022-07-24T00:25:40;6.77;;;3.93;;
11010;SDS011;5558;42.702;23.178;2022-07-24T00:28:06;6.07;;;4.00;;
11010;SDS011;5558;42.702;23.178;2022-07-24T00:30:33;6.17;;;4.40;;
11010;SDS011;5558;42.702;23.178;2022-07-24T00:33:00;5.83;;;4.20;;
11010;SDS011;5558;42.702;23.178;2022-07-24T00:35:27;7.90;;;4.40;;
11010;SDS011;5558;42.702;23.178;2022-07-24T00:37:55;6.97;;;4.17;;
11010;SDS011;5558;42.702;23.178;2022-07-24T00:40:22;7.47;;;4.27;;
11010;SDS011;5558;42.702;23.178;2022-07-24T00:42:49;6.77;;;4.23;;
11010;SDS011;5558;42.702;23.178;2022-07-24T00:45:16;6.97;;;4.20;;
11010;SDS011;5558;42.702;23.178;2022-07-24T00:47:43;9.40;;;4.33;;
11010;SDS011;5558;42.702;23.178;2022-07-24T00:50:10;7.80;;;4.43;;
11010;SDS011;5558;42.702;23.178;2022-07-24T00:52:37;8.00;;;4.60;;
11010;SDS011;5558;42.702;23.178;2022-07-24T00:55:06;6.07;;;4.23;;
11010;SDS011;5558;42.702;23.178;2022-07-24T00:57:34;6.30;;;4.60;;
11010;SDS011;5558;42.702;23.178;2022-07-24T01:00:01;6.87;;;4.50;;
11010;SDS011;5558;42.702;23.178;2022-07-24T01:02:30;6.80;;;4.43;;
11010;SDS011;5558;42.702;23.178;2022-07-24T01:04:56;6.27;;;4.43;;
11010;SDS011;5558;42.702;23.178;2022-07-24T01:07:25;7.73;;;4.40;;
11010;SDS011;5558;42.702;23.178;2022-07-24T01:09:51;7.53;;;4.33;;
11010;SDS011;5558;42.702;23.178;2022-07-24T01:12:20;6.67;;;4.23;;
11010;SDS011;5558;42.702;23.178;2022-07-24T01:14:47;7.60;;;4.50;;
11010;SDS011;5558;42.702;23.178;2022-07-24T01:17:14;5.67;;;4.03;;
11010;SDS011;5558;42.702;23.178;2022-07-24T01:19:40;6.47;;;4.20;;
11010;SDS011;5558;42.702;23.178;2022-07-24T01:22:09;5.93;;;4.03;;
11010;SDS011;5558;42.702;23.178;2022-07-24T01:24:35;6.63;;;4.10;;
11010;SDS011;5558;42.702;23.178;2022-07-24T01:27:02;6.50;;;4.33;;
11010;SDS011;5558;42.702;23.178;2022-07-24T01:29:29;7.13;;;4.03;;
11010;SDS011;5558;42.702;23.178;2022-07-24T01:31:56;6.67;;;4.40;;
11010;SDS011;5558;42.702;23.178;2022-07-24T01:34:24;6.37;;;4.20;;
11010;SDS011;5558;42.702;23.178;2022-07-24T01:36:51;5.40;;;3.97;;
11010;SDS011;5558;42.702;23.178;2022-07-24T01:39:20;7.80;;;4.27;;
11010;SDS011;5558;42.702;23.178;2022-07-24T01:41:46;6.73;;;4.23;;
11010;SDS011;5558;42.702;23.178;2022-07-24T01:44:13;6.07;;;3.80;;
11010;SDS011;5558;42.702;23.178;2022-07-24T01:46:40;9.57;;;4.50;;
11010;SDS011;5558;42.702;23.178;2022-07-24T01:49:07;7.50;;;4.27;;
11010;SDS011;5558;42.702;23.178;2022-07-24T01:51:34;6.97;;;4.40;;
11010;SDS011;5558;42.702;23.178;2022-07-24T01:54:01;6.00;;;3.87;;
11010;SDS011;5558;42.702;23.178;2022-07-24T01:56:30;7.50;;;4.33;;
11010;SDS011;5558;42.702;23.178;2022-07-24T01:58:57;9.37;;;4.53;;
11010;SDS011;5558;42.702;23.178;2022-07-24T02:01:24;6.47;;;4.03;;
11010;SDS011;5558;42.702;23.178;2022-07-24T02:03:51;9.13;;;4.10;;
11010;SDS011;5558;42.702;23.178;2022-07-24T02:06:18;5.67;;;4.03;;
11010;SDS011;5558;42.702;23.178;2022-07-24T02:08:45;7.63;;;4.17;;
11010;SDS011;5558;42.702;23.178;2022-07-24T02:11:11;8.47;;;4.23;;
11010;SDS011;5558;42.702;23.178;2022-07-24T02:13:40;5.77;;;4.00;;
11010;SDS011;5558;42.702;23.178;2022-07-24T02:16:06;6.20;;;4.30;;
11010;SDS011;5558;42.702;23.178;2022-07-24T02:18:33;7.97;;;4.23;;
11010;SDS011;5558;42.702;23.178;2022-07-24T02:21:00;8.80;;;4.37;;
11010;SDS011;5558;42.702;23.178;2022-07-24T02:23:27;5.77;;;4.23;;
11010;SDS011;5558;42.702;23.178;2022-07-24T02:25:53;6.40;;;4.40;;
11010;SDS011;5558;42.702;23.178;2022-07-24T02:28:20;5.87;;;4.00;;
11010;SDS011;5558;42.702;23.178;2022-07-24T02:30:48;7.90;;;4.30;;
11010;SDS011;5558;42.702;23.178;2022-07-24T02:33:16;7.87;;;4.37;;
11010;SDS011;5558;42.702;23.178;2022-07-24T02:35:43;7.77;;;4.47;;
11010;SDS011;5558;42.702;23.178;2022-07-24T02:38:09;6.93;;;4.17;;
11010;SDS011;5558;42.702;23.178;2022-07-24T02:40:36;6.13;;;4.40;;
11010;SDS011;5558;42.702;23.178;2022-07-24T02:43:03;6.93;;;4.70;;
11010;SDS011;5558;42.702;23.178;2022-07-24T02:45:30;8.43;;;4.43;;
11010;SDS011;5558;42.702;23.178;2022-07-24T02:47:58;6.20;;;4.10;;
11010;SDS011;5558;42.702;23.178;2022-07-24T02:50:28;6.80;;;4.20;;
11010;SDS011;5558;42.702;23.178;2022-07-24T02:52:57;5.60;;;4.07;;
11010;SDS011;5558;42.702;23.178;2022-07-24T02:55:23;7.27;;;4.33;;
11010;SDS011;5558;42.702;23.178;2022-07-24T02:57:53;7.23;;;4.33;;
11010;SDS011;5558;42.702;23.178;2022-07-24T03:00:20;8.63;;;4.63;;
11010;SDS011;5558;42.702;23.178;2022-07-24T03:02:47;5.40;;;3.97;;
11010;SDS011;5558;42.702;23.178;2022-07-24T03:05:15;7.27;;;4.03;;
11010;SDS011;5558;42.702;23.178;2022-07-24T03:07:42;7.80;;;4.20;;
11010;SDS011;5558;42.702;23.178;2022-07-24T03:10:10;7.40;;;4.30;;
11010;SDS011;5558;42.702;23.178;2022-07-24T03:12:37;6.27;;;4.00;;
11010;SDS011;5558;42.702;23.178;2022-07-24T03:15:05;6.77;;;4.20;;
11010;SDS011;5558;42.702;23.178;2022-07-24T03:17:32;6.20;;;4.23;;
11010;SDS011;5558;42.702;23.178;2022-07-24T03:19:59;7.87;;;4.53;;
11010;SDS011;5558;42.702;23.178;2022-07-24T03:22:27;9.43;;;5.13;;
11010;SDS011;5558;42.702;23.178;2022-07-24T03:24:53;6.90;;;5.00;;
11010;SDS011;5558;42.702;23.178;2022-07-24T03:27:20;7.00;;;4.50;;
11010;SDS011;5558;42.702;23.178;2022-07-24T03:29:47;7.83;;;4.40;;
11010;SDS011;5558;42.702;23.178;2022-07-24T03:32:14;5.30;;;4.00;;
11010;SDS011;5558;42.702;23.178;2022-07-24T03:34:41;7.77;;;4.50;;
11010;SDS011;5558;42.702;23.178;2022-07-24T03:37:08;6.87;;;4.47;;
11010;SDS011;5558;42.702;23.178;2022-07-24T03:39:36;8.27;;;4.77;;
11010;SDS011;5558;42.702;23.178;2022-07-24T03:42:03;6.67;;;4.70;;
11010;SDS011;5558;42.702;23.178;2022-07-24T03:44:29;7.70;;;4.43;;
11010;SDS011;5558;42.702;23.178;2022-07-24T03:46:56;7.43;;;4.27;;
11010;SDS011;5558;42.702;23.178;2022-07-24T03:49:23;6.23;;;4.57;;
11010;SDS011;5558;42.702;23.178;2022-07-24T03:51:50;7.20;;;4.50;;
11010;SDS011;5558;42.702;23.178;2022-07-24T03:54:16;6.10;;;4.50;;
11010;SDS011;5558;42.702;23.178;2022-07-24T03:56:45;7.33;;;4.40;;
11010;SDS011;5558;42.702;23.178;2022-07-24T03:59:11;9.47;;;4.93;;
11010;SDS011;5558;42.702;23.178;2022-07-24T04:01:38;7.23;;;4.70;;
11010;SDS011;5558;42.702;23.178;2022-07-24T04:04:05;9.17;;;4.50;;
11010;SDS011;5558;42.702;23.178;2022-07-24T04:06:32;8.33;;;4.70;;
11010;SDS011;5558;42.702;23.178;2022-07-24T04:09:00;8.00;;;4.70;;
11010;SDS011;5558;42.702;23.178;2022-07-24T04:11:28;6.77;;;4.70;;
11010;SDS011;5558;42.702;23.178;2022-07-24T04:13:56;6.60;;;4.63;;
11010;SDS011;5558;42.702;23.178;2022-07-24T04:16:23;6.57;;;4.27;;
11010;SDS011;5558;42.702;23.178;2022-07-24T04:18:49;7.47;;;4.60;;
11010;SDS011;5558;42.702;23.178;2022-07-24T04:21:16;11.00;;;4.90;;
11010;SDS011;5558;42.702;23.178;2022-07-24T04:23:43;8.37;;;4.70;;
11010;SDS011;5558;42.702;23.178;2022-07-24T04:26:10;6.30;;;4.33;;
11010;SDS011;5558;42.702;23.178;2022-07-24T04:28:37;6.50;;;4.57;;
11010;SDS011;5558;42.702;23.178;2022-07-24T04:31:08;7.80;;;4.67;;
11010;SDS011;5558;42.702;23.178;2022-07-24T04:33:35;7.70;;;4.80;;
11010;SDS011;5558;42.702;23.178;2022-07-24T04:36:02;7.37;;;4.80;;
11010;SDS011;5558;42.702;23.178;2022-07-24T04:38:30;7.77;;;4.80;;
11010;SDS011;5558;42.702;23.178;2022-07-24T04:40:57;7.20;;;4.60;;
11010;SDS011;5558;42.702;23.178;2022-07-24T04:43:24;8.37;;;4.90;;
11010;SDS011;5558;42.702;23.178;2022-07-24T04:45:51;9.10;;;5.27;;
11010;SDS011;5558;42.702;23.178;2022-07-24T04:48:19;7.23;;;4.60;;
11010;SDS011;5558;42.702;23.178;2022-07-24T04:50:46;8.97;;;4.93;;
11010;SDS011;5558;42.702;23.178;2022-07-24T04:53:13;9.73;;;5.23;;
11010;SDS011;5558;42.702;23.178;2022-07-24T04:55:40;7.27;;;4.63;;
11010;SDS011;5558;42.702;23.178;2022-07-24T04:58:07;9.83;;;5.10;;
11010;SDS011;5558;42.702;23.178;2022-07-24T05:00:33;8.97;;;4.87;;
11010;SDS011;5558;42.702;23.178;2022-07-24T05:03:00;8.90;;;4.63;;
11010;SDS011;5558;42.702;23.178;2022-07-24T05:05:28;8.20;;;4.90;;
11010;SDS011;5558;42.702;23.178;2022-07-24T05:07:55;7.53;;;4.57;;
11010;SDS011;5558;42.702;23.178;2022-07-24T05:10:22;8.97;;;5.20;;
11010;SDS011;5558;42.702;23.178;2022-07-24T05:12:49;7.37;;;5.03;;
11010;SDS011;5558;42.702;23.178;2022-07-24T05:15:15;9.57;;;5.03;;
11010;SDS011;5558;42.702;23.178;2022-07-24T05:17:42;9.87;;;5.50;;
11010;SDS011;5558;42.702;23.178;2022-07-24T05:20:09;8.37;;;5.40;;
11010;SDS011;5558;42.702;23.178;2022-07-24T05:22:38;9.40;;;5.13;;
11010;SDS011;5558;42.702;23.178;2022-07-24T05:25:05;8.70;;;5.70;;
11010;SDS011;5558;42.702;23.178;2022-07-24T05:27:33;7.17;;;5.30;;
11010;SDS011;5558;42.702;23.178;2022-07-24T05:29:59;7.27;;;5.40;;
11010;SDS011;5558;42.702;23.178;2022-07-24T05:32:26;8.37;;;5.37;;
11010;SDS011;5558;42.702;23.178;2022-07-24T05:34:53;8.93;;;5.60;;
11010;SDS011;5558;42.702;23.178;2022-07-24T05:37:20;7.27;;;4.90;;
11010;SDS011;5558;42.702;23.178;2022-07-24T05:39:48;7.90;;;5.67;;
11010;SDS011;5558;42.702;23.178;2022-07-24T05:42:14;10.27;;;5.63;;
11010;SDS011;5558;42.702;23.178;2022-07-24T05:44:41;9.97;;;5.57;;
11010;SDS011;5558;42.702;23.178;2022-07-24T05:47:08;9.73;;;5.57;;
11010;SDS011;5558;42.702;23.178;2022-07-24T05:49:35;8.67;;;5.20;;
11010;SDS011;5558;42.702;23.178;2022-07-24T05:52:02;8.13;;;5.00;;
11010;SDS011;5558;42.702;23.178;2022-07-24T05:54:29;8.73;;;5.40;;
11010;SDS011;5558;42.702;23.178;2022-07-24T05:56:57;7.35;;;5.55;;
11010;SDS011;5558;42.702;23.178;2022-07-24T05:59:23;7.70;;;5.60;;
11010;SDS011;5558;42.702;23.178;2022-07-24T06:01:50;8.70;;;5.18;;
11010;SDS011;5558;42.702;23.178;2022-07-24T06:04:17;6.63;;;5.03;;
11010;SDS011;5558;42.702;23.178;2022-07-24T06:06:43;6.43;;;5.43;;
11010;SDS011;5558;42.702;23.178;2022-07-24T06:09:10;8.63;;;5.68;;
11010;SDS011;5558;42.702;23.178;2022-07-24T06:11:37;8.30;;;5.40;;
11010;SDS011;5558;42.702;23.178;2022-07-24T06:14:05;10.15;;;5.70;;
11010;SDS011;5558;42.702;23.178;2022-07-24T06:16:31;9.52;;;5.95;;
11010;SDS011;5558;42.702;23.178;2022-07-24T06:18:58;8.25;;;5.78;;
11010;SDS011;5558;42.702;23.178;2022-07-24T06:21:26;7.80;;;5.60;;
11010;SDS011;5558;42.702;23.178;2022-07-24T06:23:53;8.15;;;5.47;;
11010;SDS011;5558;42.702;23.178;2022-07-24T06:26:20;8.95;;;5.55;;
11010;SDS011;5558;42.702;23.178;2022-07-24T06:28:47;10.50;;;6.00;;
11010;SDS011;5558;42.702;23.178;2022-07-24T06:31:15;6.82;;;5.50;;
11010;SDS011;5558;42.702;23.178;2022-07-24T06:33:41;10.07;;;5.68;;
11010;SDS011;5558;42.702;23.178;2022-07-24T06:36:08;7.65;;;5.38;;
11010;SDS011;5558;42.702;23.178;2022-07-24T06:38:35;11.68;;;5.78;;
11010;SDS011;5558;42.702;23.178;2022-07-24T06:41:02;11.30;;;5.93;;
11010;SDS011;5558;42.702;23.178;2022-07-24T06:43:29;8.52;;;5.45;;
11010;SDS011;5558;42.702;23.178;2022-07-24T06:45:56;8.98;;;5.50;;
11010;SDS011;5558;42.702;23.178;2022-07-24T06:48:24;9.52;;;5.78;;
11010;SDS011;5558;42.702;23.178;2022-07-24T06:50:51;9.20;;;5.15;;
11010;SDS011;5558;42.702;23.178;2022-07-24T06:53:17;10.07;;;5.70;;
11010;SDS011;5558;42.702;23.178;2022-07-24T06:55:44;8.73;;;5.70;;
11010;SDS011;5558;42.702;23.178;2022-07-24T06:58:11;8.52;;;5.72;;
11010;SDS011;5558;42.702;23.178;2022-07-24T07:00:39;10.07;;;5.75;;
11010;SDS011;5558;42.702;23.178;2022-07-24T07:03:05;8.77;;;5.70;;
11010;SDS011;5558;42.702;23.178;2022-07-24T07:05:33;9.77;;;5.82;;
11010;SDS011;5558;42.702;23.178;2022-07-24T07:08:00;8.15;;;5.88;;
11010;SDS011;5558;42.702;23.178;2022-07-24T07:10:27;8.57;;;5.82;;
11010;SDS011;5558;42.702;23.178;2022-07-24T07:12:54;8.43;;;5.95;;
11010;SDS011;5558;42.702;23.178;2022-07-24T07:15:21;9.18;;;5.82;;
11010;SDS011;5558;42.702;23.178;2022-07-24T07:17:48;8.18;;;5.78;;
11010;SDS011;5558;42.702;23.178;2022-07-24T07:20:14;7.13;;;5.90;;
11010;SDS011;5558;42.702;23.178;2022-07-24T07:22:43;8.93;;;5.93;;
11010;SDS011;5558;42.702;23.178;2022-07-24T07:25:10;11.18;;;6.18;;
11010;SDS011;5558;42.702;23.178;2022-07-24T07:27:37;8.73;;;6.28;;
11010;SDS011;5558;42.702;23.178;2022-07-24T07:30:05;8.65;;;5.80;;
11010;SDS011;5558;42.702;23.178;2022-07-24T07:32:34;8.10;;;5.95;;
11010;SDS011;5558;42.702;23.178;2022-07-24T07:35:02;8.20;;;6.38;;
11010;SDS011;5558;42.702;23.178;2022-07-24T07:37:29;9.55;;;5.93;;
11010;SDS011;5558;42.702;23.178;2022-07-24T07:39:57;9.25;;;6.18;;
11010;SDS011;5558;42.702;23.178;2022-07-24T07:42:24;10.68;;;6.38;;
11010;SDS011;5558;42.702;23.178;2022-07-24T07:44:51;11.35;;;6.22;;
11010;SDS011;5558;42.702;23.178;2022-07-24T07:47:18;13.52;;;6.57;;
11010;SDS011;5558;42.702;23.178;2022-07-24T07:49:45;10.13;;;6.70;;
11010;SDS011;5558;42.702;23.178;2022-07-24T07:52:11;11.00;;;6.38;;
11010;SDS011;5558;42.702;23.178;2022-07-24T07:54:38;9.73;;;6.10;;
11010;SDS011;5558;42.702;23.178;2022-07-24T07:57:06;8.65;;;5.93;;
11010;SDS011;5558;42.702;23.178;2022-07-24T07:59:33;9.30;;;6.15;;
11010;SDS011;5558;42.702;23.178;2022-07-24T08:02:00;9.23;;;6.38;;
11010;SDS011;5558;42.702;23.178;2022-07-24T08:04:26;8.13;;;6.10;;
11010;SDS011;5558;42.702;23.178;2022-07-24T08:06:53;8.75;;;6.50;;
11010;SDS011;5558;42.702;23.178;2022-07-24T08:09:20;9.25;;;6.45;;
11010;SDS011;5558;42.702;23.178;2022-07-24T08:11:47;10.30;;;6.38;;
11010;SDS011;5558;42.702;23.178;2022-07-24T08:14:15;10.38;;;6.68;;
11010;SDS011;5558;42.702;23.178;2022-07-24T08:16:42;11.10;;;6.38;;
11010;SDS011;5558;42.702;23.178;2022-07-24T08:19:09;8.70;;;6.32;;
11010;SDS011;5558;42.702;23.178;2022-07-24T08:21:36;9.85;;;6.60;;
11010;SDS011;5558;42.702;23.178;2022-07-24T08:24:03;11.30;;;6.85;;
11010;SDS011;5558;42.702;23.178;2022-07-24T08:26:31;9.93;;;6.67;;
11010;SDS011;5558;42.702;23.178;2022-07-24T08:28:58;12.27;;;6.33;;
11010;SDS011;5558;42.702;23.178;2022-07-24T08:31:26;10.07;;;6.20;;
11010;SDS011;5558;42.702;23.178;2022-07-24T08:33:54;9.70;;;6.30;;
11010;SDS011;5558;42.702;23.178;2022-07-24T08:36:20;11.13;;;6.50;;
11010;SDS011;5558;42.702;23.178;2022-07-24T08:38:47;8.13;;;6.40;;
11010;SDS011;5558;42.702;23.178;2022-07-24T08:41:14;8.20;;;6.30;;
11010;SDS011;5558;42.702;23.178;2022-07-24T08:43:43;10.63;;;6.17;;
11010;SDS011;5558;42.702;23.178;2022-07-24T08:46:10;10.00;;;6.77;;
11010;SDS011;5558;42.702;23.178;2022-07-24T08:48:42;9.70;;;6.20;;
11010;SDS011;5558;42.702;23.178;2022-07-24T08:51:10;10.57;;;6.53;;
11010;SDS011;5558;42.702;23.178;2022-07-24T08:53:39;9.53;;;6.70;;
11010;SDS011;5558;42.702;23.178;2022-07-24T08:56:06;8.90;;;6.60;;
11010;SDS011;5558;42.702;23.178;2022-07-24T08:58:35;8.93;;;6.27;;
11010;SDS011;5558;42.702;23.178;2022-07-24T09:01:03;10.10;;;6.63;;
11010;SDS011;5558;42.702;23.178;2022-07-24T09:03:37;10.30;;;6.73;;
11010;SDS011;5558;42.702;23.178;2022-07-24T09:06:06;10.83;;;6.57;;
11010;SDS011;5558;42.702;23.178;2022-07-24T09:08:34;10.67;;;6.30;;
11010;SDS011;5558;42.702;23.178;2022-07-24T09:11:02;8.50;;;6.50;;
11010;SDS011;5558;42.702;23.178;2022-07-24T09:13:30;9.67;;;6.47;;
11010;SDS011;5558;42.702;23.178;2022-07-24T09:16:20;11.17;;;7.33;;
11010;SDS011;5558;42.702;23.178;2022-07-24T09:18:48;14.83;;;10.23;;
11010;SDS011;5558;42.702;23.178;2022-07-24T09:21:17;15.33;;;11.03;;
11010;SDS011;5558;42.702;23.178;2022-07-24T09:23:45;13.37;;;7.60;;
11010;SDS011;5558;42.702;23.178;2022-07-24T09:26:13;15.53;;;7.20;;
11010;SDS011;5558;42.702;23.178;2022-07-24T09:28:50;12.07;;;8.37;;
11010;SDS011;5558;42.702;23.178;2022-07-24T09:31:18;7.80;;;5.30;;
11010;SDS011;5558;42.702;23.178;2022-07-24T09:33:47;9.03;;;5.40;;
11010;SDS011;5558;42.702;23.178;2022-07-24T09:36:14;9.97;;;6.20;;
11010;SDS011;5558;42.702;23.178;2022-07-24T09:38:50;11.93;;;5.83;;
11010;SDS011;5558;42.702;23.178;2022-07-24T09:41:21;7.50;;;5.80;;
11010;SDS011;5558;42.702;23.178;2022-07-24T09:43:57;10.33;;;5.97;;
11010;SDS011;5558;42.702;23.178;2022-07-24T09:46:26;8.57;;;6.03;;
11010;SDS011;5558;42.702;23.178;2022-07-24T09:48:54;9.97;;;6.00;;
11010;SDS011;5558;42.702;23.178;2022-07-24T09:51:23;11.37;;;6.07;;
11010;SDS011;5558;42.702;23.178;2022-07-24T09:53:54;9.80;;;6.33;;
11010;SDS011;5558;42.702;23.178;2022-07-24T09:56:22;9.25;;;5.97;;
11010;SDS011;5558;42.702;23.178;2022-07-24T09:58:50;9.77;;;6.18;;
11010;SDS011;5558;42.702;23.178;2022-07-24T10:01:20;10.23;;;6.73;;
11010;SDS011;5558;42.702;23.178;2022-07-24T10:03:49;8.83;;;6.03;;
11010;SDS011;5558;42.702;23.178;2022-07-24T10:06:18;7.90;;;5.90;;
11010;SDS011;5558;42.702;23.178;2022-07-24T10:08:47;7.77;;;5.67;;
11010;SDS011;5558;42.702;23.178;2022-07-24T10:11:16;7.73;;;5.83;;
11010;SDS011;5558;42.702;23.178;2022-07-24T10:13:44;9.83;;;5.90;;
11010;SDS011;5558;42.702;23.178;2022-07-24T10:16:30;8.30;;;5.73;;
11010;SDS011;5558;42.702;23.178;2022-07-24T10:18:58;8.87;;;6.20;;
11010;SDS011;5558;42.702;23.178;2022-07-24T10:21:26;8.60;;;5.93;;
11010;SDS011;5558;42.702;23.178;2022-07-24T10:24:09;11.07;;;6.00;;
11010;SDS011;5558;42.702;23.178;2022-07-24T10:26:47;6.40;;;5.23;;
11010;SDS011;5558;42.702;23.178;2022-07-24T10:29:16;8.57;;;5.10;;
11010;SDS011;5558;42.702;23.178;2022-07-24T10:31:44;6.90;;;5.20;;
11010;SDS011;5558;42.702;23.178;2022-07-24T10:34:13;5.93;;;4.50;;
11010;SDS011;5558;42.702;23.178;2022-07-24T10:36:52;6.77;;;5.20;;
11010;SDS011;5558;42.702;23.178;2022-07-24T10:39:30;13.10;;;5.93;;
11010;SDS011;5558;42.702;23.178;2022-07-24T10:42:05;6.82;;;5.20;;
11010;SDS011;5558;42.702;23.178;2022-07-24T10:44:33;6.53;;;5.00;;
11010;SDS011;5558;42.702;23.178;2022-07-24T10:47:02;5.95;;;4.97;;
11010;SDS011;5558;42.702;23.178;2022-07-24T10:49:35;6.50;;;4.47;;
11010;SDS011;5558;42.702;23.178;2022-07-24T10:52:10;7.13;;;4.93;;
11010;SDS011;5558;42.702;23.178;2022-07-24T10:54:38;5.30;;;4.80;;
11010;SDS011;5558;42.702;23.178;2022-07-24T10:57:07;6.20;;;4.70;;
11010;SDS011;5558;42.702;23.178;2022-07-24T10:59:35;5.78;;;4.60;;
11010;SDS011;5558;42.702;23.178;2022-07-24T11:11:05;6.55;;;4.95;;
11010;SDS011;5558;42.702;23.178;2022-07-24T11:13:41;5.50;;;4.75;;
11010;SDS011;5558;42.702;23.178;2022-07-24T11:16:23;7.90;;;4.88;;
11010;SDS011;5558;42.702;23.178;2022-07-24T11:22:06;6.50;;;4.78;;
11010;SDS011;5558;42.702;23.178;2022-07-24T11:24:34;7.10;;;5.28;;
11010;SDS011;5558;42.702;23.178;2022-07-24T11:27:05;6.68;;;5.00;;
11010;SDS011;5558;42.702;23.178;2022-07-24T11:29:35;7.78;;;5.05;;
11010;SDS011;5558;42.702;23.178;2022-07-24T11:32:04;8.40;;;4.90;;
11010;SDS011;5558;42.702;23.178;2022-07-24T11:34:33;8.68;;;5.20;;
11010;SDS011;5558;42.702;23.178;2022-07-24T11:37:01;5.75;;;5.10;;
11010;SDS011;5558;42.702;23.178;2022-07-24T11:39:31;6.10;;;4.80;;
11010;SDS011;5558;42.702;23.178;2022-07-24T11:42:00;6.72;;;4.95;;
11010;SDS011;5558;42.702;23.178;2022-07-24T11:44:29;7.35;;;4.93;;
11010;SDS011;5558;42.702;23.178;2022-07-24T11:46:58;8.20;;;5.10;;
11010;SDS011;5558;42.702;23.178;2022-07-24T11:49:27;6.15;;;4.90;;
11010;SDS011;5558;42.702;23.178;2022-07-24T11:51:54;7.30;;;5.28;;
11010;SDS011;5558;42.702;23.178;2022-07-24T11:54:22;6.05;;;4.72;;
11010;SDS011;5558;42.702;23.178;2022-07-24T11:56:50;7.03;;;4.78;;
11010;SDS011;5558;42.702;23.178;2022-07-24T11:59:20;5.93;;;4.72;;
11010;SDS011;5558;42.702;23.178;2022-07-24T12:01:48;6.00;;;4.97;;
11010;SDS011;5558;42.702;23.178;2022-07-24T12:04:20;7.22;;;4.80;;
11010;SDS011;5558;42.702;23.178;2022-07-24T12:06:47;5.30;;;4.60;;
11010;SDS011;5558;42.702;23.178;2022-07-24T12:09:14;6.43;;;4.70;;
11010;SDS011;5558;42.702;23.178;2022-07-24T12:11:40;7.68;;;5.18;;
11010;SDS011;5558;42.702;23.178;2022-07-24T12:14:12;6.55;;;4.63;;
11010;SDS011;5558;42.702;23.178;2022-07-24T12:16:39;5.93;;;5.05;;
11010;SDS011;5558;42.702;23.178;2022-07-24T12:19:13;6.20;;;5.13;;
11010;SDS011;5558;42.702;23.178;2022-07-24T12:21:42;8.00;;;5.07;;
11010;SDS011;5558;42.702;23.178;2022-07-24T12:24:10;5.53;;;4.97;;
11010;SDS011;5558;42.702;23.178;2022-07-24T12:26:48;7.13;;;5.18;;
11010;SDS011;5558;42.702;23.178;2022-07-24T12:29:15;8.32;;;5.10;;
11010;SDS011;5558;42.702;23.178;2022-07-24T12:31:42;7.38;;;5.18;;
11010;SDS011;5558;42.702;23.178;2022-07-24T12:34:09;6.07;;;5.25;;
11010;SDS011;5558;42.702;23.178;2022-07-24T12:36:36;6.35;;;5.22;;
11010;SDS011;5558;42.702;23.178;2022-07-24T12:39:04;7.47;;;5.50;;
11010;SDS011;5558;42.702;23.178;2022-07-24T12:41:31;5.82;;;5.20;;
11010;SDS011;5558;42.702;23.178;2022-07-24T12:44:07;5.70;;;5.20;;
11010;SDS011;5558;42.702;23.178;2022-07-24T12:46:35;6.22;;;4.97;;
11010;SDS011;5558;42.702;23.178;2022-07-24T12:49:03;5.82;;;5.32;;
11010;SDS011;5558;42.702;23.178;2022-07-24T12:51:47;5.78;;;5.22;;
11010;SDS011;5558;42.702;23.178;2022-07-24T12:54:17;7.40;;;5.10;;
11010;SDS011;5558;42.702;23.178;2022-07-24T12:56:46;6.78;;;5.43;;
11010;SDS011;5558;42.702;23.178;2022-07-24T12:59:23;6.32;;;5.70;;
11010;SDS011;5558;42.702;23.178;2022-07-24T13:01:52;7.35;;;5.45;;
11010;SDS011;5558;42.702;23.178;2022-07-24T13:04:21;7.47;;;5.45;;
11010;SDS011;5558;42.702;23.178;2022-07-24T13:06:49;6.35;;;5.63;;
11010;SDS011;5558;42.702;23.178;2022-07-24T13:09:19;6.28;;;5.40;;
11010;SDS011;5558;42.702;23.178;2022-07-24T13:11:47;5.68;;;5.07;;
11010;SDS011;5558;42.702;23.178;2022-07-24T13:14:16;10.60;;;5.57;;
11010;SDS011;5558;42.702;23.178;2022-07-24T13:16:45;6.88;;;5.85;;
11010;SDS011;5558;42.702;23.178;2022-07-24T13:19:15;6.97;;;5.65;;
11010;SDS011;5558;42.702;23.178;2022-07-24T13:21:43;6.90;;;5.78;;
11010;SDS011;5558;42.702;23.178;2022-07-24T13:24:12;6.25;;;5.38;;
11010;SDS011;5558;42.702;23.178;2022-07-24T13:26:42;6.03;;;5.43;;
11010;SDS011;5558;42.702;23.178;2022-07-24T13:29:10;6.18;;;5.57;;
11010;SDS011;5558;42.702;23.178;2022-07-24T13:31:38;6.43;;;5.82;;
11010;SDS011;5558;42.702;23.178;2022-07-24T13:34:05;7.53;;;5.32;;
11010;SDS011;5558;42.702;23.178;2022-07-24T13:36:33;5.45;;;4.93;;
11010;SDS011;5558;42.702;23.178;2022-07-24T13:39:00;6.20;;;5.28;;
11010;SDS011;5558;42.702;23.178;2022-07-24T13:41:27;5.83;;;5.23;;
11010;SDS011;5558;42.702;23.178;2022-07-24T13:43:55;6.05;;;5.20;;
11010;SDS011;5558;42.702;23.178;2022-07-24T13:46:22;6.60;;;5.70;;
11010;SDS011;5558;42.702;23.178;2022-07-24T13:48:49;5.63;;;5.10;;
11010;SDS011;5558;42.702;23.178;2022-07-24T13:51:16;5.27;;;4.80;;
11010;SDS011;5558;42.702;23.178;2022-07-24T13:53:43;5.63;;;5.00;;
11010;SDS011;5558;42.702;23.178;2022-07-24T13:56:10;6.23;;;4.80;;
11010;SDS011;5558;42.702;23.178;2022-07-24T13:58:37;5.33;;;4.67;;
11010;SDS011;5558;42.702;23.178;2022-07-24T14:01:08;32.13;;;6.43;;
11010;SDS011;5558;42.702;23.178;2022-07-24T14:03:35;9.80;;;5.40;;
11010;SDS011;5558;42.702;23.178;2022-07-24T14:06:04;10.13;;;5.17;;
11010;SDS011;5558;42.702;23.178;2022-07-24T14:08:33;6.63;;;5.03;;
11010;SDS011;5558;42.702;23.178;2022-07-24T14:11:00;7.30;;;5.40;;
11010;SDS011;5558;42.702;23.178;2022-07-24T14:13:26;6.87;;;5.50;;
11010;SDS011;5558;42.702;23.178;2022-07-24T14:15:53;7.23;;;5.60;;
11010;SDS011;5558;42.702;23.178;2022-07-24T14:18:21;6.43;;;5.30;;
11010;SDS011;5558;42.702;23.178;2022-07-24T14:20:48;7.03;;;5.43;;
11010;SDS011;5558;42.702;23.178;2022-07-24T14:23:15;6.63;;;5.70;;
11010;SDS011;5558;42.702;23.178;2022-07-24T14:25:42;6.87;;;5.80;;
11010;SDS011;5558;42.702;23.178;2022-07-24T14:28:09;6.30;;;5.70;;
11010;SDS011;5558;42.702;23.178;2022-07-24T14:30:36;6.53;;;5.50;;
11010;SDS011;5558;42.702;23.178;2022-07-24T14:33:03;5.87;;;5.30;;
11010;SDS011;5558;42.702;23.178;2022-07-24T14:35:31;5.90;;;5.43;;
11010;SDS011;5558;42.702;23.178;2022-07-24T14:37:58;6.20;;;5.60;;
11010;SDS011;5558;42.702;23.178;2022-07-24T14:40:25;6.27;;;5.67;;
11010;SDS011;5558;42.702;23.178;2022-07-24T14:42:52;7.43;;;6.10;;
11010;SDS011;5558;42.702;23.178;2022-07-24T14:45:19;5.93;;;5.43;;
11010;SDS011;5558;42.702;23.178;2022-07-24T14:47:47;6.23;;;5.63;;
11010;SDS011;5558;42.702;23.178;2022-07-24T14:50:13;6.43;;;5.83;;
11010;SDS011;5558;42.702;23.178;2022-07-24T14:52:42;6.30;;;5.63;;
11010;SDS011;5558;42.702;23.178;2022-07-24T14:55:09;6.57;;;5.87;;
11010;SDS011;5558;42.702;23.178;2022-07-24T14:57:36;6.40;;;5.80;;
11010;SDS011;5558;42.702;23.178;2022-07-24T15:00:04;6.93;;;6.33;;
11010;SDS011;5558;42.702;23.178;2022-07-24T15:02:32;7.37;;;5.87;;